Time;durP1;ratioP1;P1;durP2;ratioP2;P2;SDS_P1;SDS_P2;PMS_P1;PMS_P2;Temp;Humidity;BMP_temperature;BMP_pressure;BME280_temperature;BME280_humidity;BME280_pressure;Samples;Min_cycle;Max_cycle;Signal;HPM_P1;HPM_P2
2022/09/12 00:02:15;;;;;;;14.40;10.25;;;;;;;18.72;55.73;101628.44;5079267;28;20383;-65
2022/09/12 00:04:42;;;;;;;14.43;11.05;;;;;;;18.70;55.84;101624.16;5073879;28;20037;-65
2022/09/12 00:07:08;;;;;;;14.05;11.90;;;;;;;18.70;55.91;101619.56;5073822;28;20049;-65
2022/09/12 00:09:35;;;;;;;12.73;10.88;;;;;;;18.69;55.92;101623.28;5073762;28;20105;-66
2022/09/12 00:12:01;;;;;;;14.85;12.00;;;;;;;18.69;55.52;101612.41;5081153;28;20474;-65
2022/09/12 00:14:53;;;;;;;16.48;12.10;;;;;;;18.66;55.84;101609.09;5088359;28;20074;-64
2022/09/12 00:17:20;;;;;;;17.13;14.00;;;;;;;18.66;55.74;101609.09;5073796;28;20097;-65
2022/09/12 00:19:46;;;;;;;20.98;16.67;;;;;;;18.63;55.51;101609.41;5075113;28;20044;-65
2022/09/12 00:22:13;;;;;;;18.25;15.57;;;;;;;18.59;56.00;101600.63;5073657;28;20094;-65
2022/09/12 00:24:41;;;;;;;16.73;14.45;;;;;;;18.56;55.90;101606.31;5073957;28;20045;-65
2022/09/12 00:27:08;;;;;;;17.75;14.75;;;;;;;18.54;55.75;101604.75;5090481;28;20486;-65
2022/09/12 00:29:34;;;;;;;18.23;14.43;;;;;;;18.51;55.97;101602.31;5060371;28;20036;-65
2022/09/12 00:32:01;;;;;;;16.67;14.63;;;;;;;18.48;55.88;101606.16;5093386;28;20494;-65
2022/09/12 00:34:27;;;;;;;18.33;14.52;;;;;;;18.46;56.04;101599.16;5093050;28;20036;-65
2022/09/12 00:36:54;;;;;;;15.77;13.70;;;;;;;18.43;56.10;101593.00;5094120;28;20078;-65
2022/09/12 00:39:20;;;;;;;18.42;14.30;;;;;;;18.44;56.33;101593.84;5087671;28;20090;-65
2022/09/12 00:41:47;;;;;;;18.35;14.70;;;;;;;18.41;55.94;101586.84;5092933;28;20048;-66
2022/09/12 00:44:23;;;;;;;18.35;15.73;;;;;;;18.37;56.31;101585.41;5093542;28;20490;-65
2022/09/12 00:46:55;;;;;;;18.25;15.07;;;;;;;18.32;56.15;101582.25;5093506;28;20473;-65
2022/09/12 00:49:25;;;;;;;22.73;16.45;;;;;;;18.30;56.51;101586.97;5075642;28;20066;-66
2022/09/12 00:52:21;;;;;;;17.85;15.30;;;;;;;18.25;56.36;101588.41;5073110;28;20094;-65
2022/09/12 00:55:00;;;;;;;17.10;15.07;;;;;;;18.22;56.41;101575.94;5089391;28;20102;-64
2022/09/12 00:57:55;;;;;;;20.10;15.95;;;;;;;18.16;56.37;101573.78;5076769;28;20082;-65
2022/09/12 01:00:24;;;;;;;19.13;16.33;;;;;;;18.16;56.42;101576.50;5075590;28;20048;-65
2022/09/12 01:02:55;;;;;;;19.23;15.93;;;;;;;18.13;56.24;101570.47;5081697;28;20039;-65
2022/09/12 01:05:23;;;;;;;22.10;16.65;;;;;;;18.08;56.42;101563.63;5093181;28;20043;-64
2022/09/12 01:07:51;;;;;;;21.60;17.02;;;;;;;18.05;56.68;101565.75;5079420;28;20098;-64
2022/09/12 01:10:18;;;;;;;17.50;15.10;;;;;;;18.00;56.51;101571.59;5073299;28;20041;-65
2022/09/12 01:12:46;;;;;;;20.05;15.77;;;;;;;17.96;56.88;101558.44;5085017;28;20113;-65
2022/09/12 01:15:14;;;;;;;16.38;14.35;;;;;;;17.94;56.63;101560.44;5081439;28;20110;-64
2022/09/12 01:17:55;;;;;;;19.75;15.48;;;;;;;17.90;56.90;101554.41;5074303;28;20067;-64
2022/09/12 01:20:40;;;;;;;18.98;15.43;;;;;;;17.87;56.63;101554.69;5073029;28;20044;-65
2022/09/12 01:23:46;;;;;;;17.13;14.93;;;;;;;17.84;56.81;101556.84;5072820;28;20410;-65
2022/09/12 01:26:46;;;;;;;18.58;14.80;;;;;;;17.78;56.92;101559.06;5021025;28;20048;-66
2022/09/12 01:29:47;;;;;;;19.10;15.70;;;;;;;17.76;57.12;101550.19;5071545;28;20414;-65
2022/09/12 01:32:37;;;;;;;19.42;15.48;;;;;;;17.77;57.14;101551.91;5071681;28;20049;-65
2022/09/12 01:35:22;;;;;;;18.98;15.10;;;;;;;17.76;56.98;101560.22;5074991;28;20097;-66
2022/09/12 01:37:52;;;;;;;16.35;13.90;;;;;;;17.80;57.13;101553.50;5091967;28;20043;-65
2022/09/12 01:40:39;;;;;;;18.92;15.00;;;;;;;17.83;57.01;101555.94;5090127;28;20076;-65
2022/09/12 01:43:25;;;;;;;17.70;14.52;;;;;;;17.84;57.09;101557.69;5091735;28;20040;-65
2022/09/12 01:45:56;;;;;;;16.77;13.82;;;;;;;17.85;56.69;101558.53;5091933;28;20101;-65
2022/09/12 01:48:35;;;;;;;18.27;14.95;;;;;;;17.82;56.56;101551.50;5092077;28;20119;-65
2022/09/12 01:51:37;;;;;;;18.38;14.90;;;;;;;17.82;56.75;101550.63;5071568;28;20052;-66
2022/09/12 01:54:14;;;;;;;17.33;14.40;;;;;;;17.77;56.78;101543.78;5061382;28;20056;-66
2022/09/12 01:56:43;;;;;;;21.77;14.80;;;;;;;17.76;56.44;101538.47;5071940;28;20041;-65
2022/09/12 01:59:34;;;;;;;23.23;15.10;;;;;;;17.74;56.96;101540.47;5071781;28;20102;-65
2022/09/12 02:02:15;;;;;;;22.58;16.20;;;;;;;17.77;56.83;101537.47;5057053;28;20053;-66
2022/09/12 02:05:08;;;;;;;21.30;15.07;;;;;;;17.75;56.58;101534.03;5072362;28;20063;-65
2022/09/12 02:07:45;;;;;;;18.65;14.93;;;;;;;17.75;56.89;101520.44;5071731;28;20053;-67
2022/09/12 02:10:21;;;;;;;20.40;15.93;;;;;;;17.71;56.70;101516.28;5071856;28;20037;-66
2022/09/12 02:12:53;;;;;;;23.75;13.43;;;;;;;17.62;56.82;101514.38;5089723;28;20543;-66
2022/09/12 02:15:33;;;;;;;20.95;15.68;;;;;;;17.53;56.70;101504.34;5092530;28;20086;-66
2022/09/12 02:18:03;;;;;;;23.95;17.20;;;;;;;17.45;56.67;101505.03;5091984;28;20567;-65
2022/09/12 02:20:34;;;;;;;23.58;17.45;;;;;;;17.36;56.87;101511.28;5092624;28;20101;-66
2022/09/12 02:23:39;;;;;;;23.30;17.13;;;;;;;17.31;57.42;101508.97;5091349;28;20060;-66
2022/09/12 02:26:16;;;;;;;24.38;18.20;;;;;;;17.29;57.05;101508.25;5091257;28;20044;-66
2022/09/12 02:28:44;;;;;;;24.63;18.05;;;;;;;17.26;57.23;101508.53;5091213;28;20040;-66
2022/09/12 02:31:13;;;;;;;23.15;18.00;;;;;;;17.19;57.27;101501.06;5079423;28;20052;-66
2022/09/12 02:33:52;;;;;;;21.35;17.40;;;;;;;17.11;57.55;101494.47;5071010;28;20087;-66
2022/09/12 02:36:33;;;;;;;22.67;17.10;;;;;;;17.08;57.82;101500.13;5070932;28;20041;-66
2022/09/12 02:39:00;;;;;;;21.25;17.38;;;;;;;17.05;57.62;101505.81;5055077;28;20109;-65
2022/09/12 02:41:27;;;;;;;22.42;17.77;;;;;;;17.07;57.82;101502.97;5074668;28;20037;-66
2022/09/12 02:43:58;;;;;;;21.88;17.17;;;;;;;17.08;58.14;101508.28;5075613;28;20045;-66
2022/09/12 02:46:32;;;;;;;20.50;17.55;;;;;;;17.13;58.15;101511.47;5074595;28;20108;-67
2022/09/12 02:48:58;;;;;;;21.25;16.77;;;;;;;17.18;57.99;101507.50;5074633;28;20094;-66
2022/09/12 02:51:26;;;;;;;21.63;16.55;;;;;;;17.20;58.23;101509.06;5074349;28;20033;-66
2022/09/12 02:53:56;;;;;;;20.50;16.10;;;;;;;17.22;58.00;101514.38;5090395;28;20039;-66
2022/09/12 02:56:26;;;;;;;19.42;15.98;;;;;;;17.23;57.72;101514.22;5094801;28;20097;-66
2022/09/12 02:59:01;;;;;;;22.77;16.77;;;;;;;17.26;57.82;101521.25;5082017;28;20048;-66
2022/09/12 03:01:37;;;;;;;20.33;16.67;;;;;;;17.26;57.51;101513.09;5074431;28;20115;-66
2022/09/12 03:04:24;;;;;;;;;;;;;;;17.27;57.67;101512.09;5074840;28;20490;-65
2022/09/12 03:07:07;;;;;;;25.33;18.30;;;;;;;17.28;57.57;101505.69;5074351;28;20443;-66
2022/09/12 03:09:58;;;;;;;27.45;18.17;;;;;;;17.24;57.49;101504.22;5074240;28;20041;-65
2022/09/12 03:12:25;;;;;;;26.27;19.10;;;;;;;17.23;57.40;101499.81;5083056;28;20052;-66
2022/09/12 03:15:07;;;;;;;23.65;17.77;;;;;;;17.20;57.53;101495.50;5093907;28;20183;-66
2022/09/12 03:17:45;;;;;;;20.55;17.33;;;;;;;17.20;58.00;101495.50;5094521;28;20036;-66
2022/09/12 03:20:18;;;;;;;22.75;17.38;;;;;;;17.19;57.91;101496.50;5094434;28;20044;-66
2022/09/12 03:22:54;;;;;;;25.38;18.58;;;;;;;17.19;57.95;101488.34;5094263;28;20040;-65
2022/09/12 03:25:27;;;;;;;23.42;17.42;;;;;;;17.17;58.08;101486.78;5093193;28;20131;-65
2022/09/12 03:28:05;;;;;;;23.48;17.85;;;;;;;17.14;57.92;101488.75;5094290;28;20401;-66
2022/09/12 03:30:37;;;;;;;24.63;18.55;;;;;;;17.12;57.89;101485.31;5094156;28;20051;-66
2022/09/12 03:33:04;;;;;;;27.10;18.25;;;;;;;17.13;58.30;101487.03;5093900;28;20398;-65
2022/09/12 03:35:30;;;;;;;24.98;18.95;;;;;;;17.13;58.14;101483.47;5094041;28;20044;-66
2022/09/12 03:37:57;;;;;;;24.70;18.55;;;;;;;17.13;58.29;101481.63;5094390;28;20109;-66
2022/09/12 03:40:23;;;;;;;28.65;19.33;;;;;;;17.14;58.35;101475.19;5092041;28;20089;-65
2022/09/12 03:42:50;;;;;;;29.27;19.38;;;;;;;17.17;58.19;101473.19;5094341;28;20039;-65
2022/09/12 03:45:18;;;;;;;24.85;19.27;;;;;;;17.17;58.11;101465.91;5093963;28;20405;-66
2022/09/12 03:47:44;;;;;;;26.75;18.48;;;;;;;17.18;58.47;101473.06;5094095;28;20501;-66
2022/09/12 03:50:11;;;;;;;29.48;20.23;;;;;;;17.18;58.12;101461.34;5093660;28;20040;-66
2022/09/12 03:52:37;;;;;;;32.80;19.40;;;;;;;17.18;58.45;101466.78;5092233;28;20048;-66
2022/09/12 03:55:05;;;;;;;27.85;21.17;;;;;;;17.18;58.15;101459.50;5073813;28;20044;-66
2022/09/12 03:57:31;;;;;;;28.80;20.45;;;;;;;17.21;58.59;101466.50;5074107;28;20032;-66
2022/09/12 03:59:58;;;;;;;35.72;24.63;;;;;;;17.23;58.49;101462.66;5073267;28;20037;-66
2022/09/12 04:02:24;;;;;;;29.15;21.60;;;;;;;17.27;58.59;101463.25;5085360;28;20052;-66
2022/09/12 04:04:52;;;;;;;29.30;22.67;;;;;;;17.28;58.59;101465.81;5093922;28;20509;-65
2022/09/12 04:07:19;;;;;;;33.33;20.45;;;;;;;17.32;58.77;101458.25;5084488;28;20048;-65
2022/09/12 04:09:45;;;;;;;34.03;22.88;;;;;;;17.35;58.99;101455.25;5073032;28;20040;-66
2022/09/12 04:12:12;;;;;;;31.55;21.38;;;;;;;17.39;58.85;101456.72;5073007;28;20052;-66
2022/09/12 04:14:39;;;;;;;33.53;22.35;;;;;;;17.44;59.02;101454.44;5073260;28;20487;-66
2022/09/12 04:17:06;;;;;;;32.35;21.90;;;;;;;17.47;58.75;101456.88;5079366;28;20113;-67
2022/09/12 04:19:32;;;;;;;36.20;23.42;;;;;;;17.51;59.22;101461.03;5093242;28;20482;-66
2022/09/12 04:21:59;;;;;;;36.85;23.42;;;;;;;17.52;58.95;101457.31;5093297;28;20442;-66
2022/09/12 04:24:30;;;;;;;37.03;25.05;;;;;;;17.56;58.85;101455.19;5093354;28;20040;-66
2022/09/12 04:26:57;;;;;;;33.85;23.50;;;;;;;17.56;59.15;101450.59;5093040;28;20046;-66
2022/09/12 04:29:23;;;;;;;38.20;24.05;;;;;;;17.59;58.84;101446.75;5093367;28;20105;-66
2022/09/12 04:31:50;;;;;;;33.53;23.73;;;;;;;17.60;59.13;101454.75;5078065;28;20438;-66
2022/09/12 04:34:18;;;;;;;36.53;24.35;;;;;;;17.61;58.87;101453.75;5055320;28;20056;-67
2022/09/12 04:36:44;;;;;;;35.63;24.33;;;;;;;17.63;58.99;101453.63;5055707;28;20044;-66
2022/09/12 04:39:11;;;;;;;38.38;24.13;;;;;;;17.64;59.18;101448.06;5073010;28;20037;-66
2022/09/12 04:41:40;;;;;;;32.53;22.83;;;;;;;17.66;59.05;101454.22;5072379;28;20055;-66
2022/09/12 04:44:10;;;;;;;36.63;24.73;;;;;;;17.67;59.31;101450.53;5073078;28;20041;-65
2022/09/12 04:46:40;;;;;;;40.00;23.65;;;;;;;17.69;59.28;101451.25;5072746;28;20116;-65
2022/09/12 04:49:07;;;;;;;35.08;23.70;;;;;;;17.71;58.78;101451.94;5072813;28;20086;-66
2022/09/12 04:51:35;;;;;;;36.13;23.73;;;;;;;17.71;58.79;101445.66;5072374;28;20094;-66
2022/09/12 04:54:10;;;;;;;34.22;22.00;;;;;;;17.72;59.14;101447.38;5072889;28;20041;-66
2022/09/12 04:56:41;;;;;;;35.95;24.55;;;;;;;17.72;58.97;101442.81;5072804;28;20510;-66
2022/09/12 04:59:09;;;;;;;34.78;22.63;;;;;;;17.73;58.88;101446.38;5083970;28;20040;-66
2022/09/12 05:01:36;;;;;;;35.35;23.58;;;;;;;17.73;58.79;101436.38;5075253;28;20119;-65
2022/09/12 05:04:09;;;;;;;37.65;25.13;;;;;;;17.74;59.05;101442.66;5054978;28;20057;-65
2022/09/12 05:06:37;;;;;;;39.70;24.10;;;;;;;17.75;58.89;101438.94;5072846;28;20078;-66
2022/09/12 05:09:05;;;;;;;39.90;26.45;;;;;;;17.75;59.14;101439.81;5055296;28;20383;-65
2022/09/12 05:11:37;;;;;;;39.05;24.95;;;;;;;17.76;59.31;101437.94;5054867;28;20040;-66
2022/09/12 05:14:28;;;;;;;32.22;22.75;;;;;;;17.78;59.41;101444.97;5093390;28;20046;-66
2022/09/12 05:16:58;;;;;;;35.38;23.75;;;;;;;17.79;59.35;101440.38;5092068;28;20062;-67
2022/09/12 05:19:26;;;;;;;39.97;24.77;;;;;;;17.79;59.12;101443.09;5053411;28;20041;-66
2022/09/12 05:21:52;;;;;;;36.42;23.98;;;;;;;17.79;59.24;101441.25;5053500;28;20048;-66
2022/09/12 05:24:22;;;;;;;39.28;25.08;;;;;;;17.82;59.24;101452.81;5071690;28;20032;-66
2022/09/12 05:26:49;;;;;;;38.22;25.10;;;;;;;17.83;59.64;101457.25;5071406;28;20036;-66
2022/09/12 05:29:15;;;;;;;38.55;24.83;;;;;;;17.84;59.18;101450.88;5070487;28;20048;-66
2022/09/12 05:31:42;;;;;;;36.15;23.55;;;;;;;17.84;59.46;101457.16;5070937;28;20041;-67
2022/09/12 05:34:10;;;;;;;42.25;25.55;;;;;;;17.83;59.50;101454.53;5071746;28;20399;-66
2022/09/12 05:36:37;;;;;;;34.58;23.05;;;;;;;17.83;59.76;101452.69;5071509;28;20049;-67
2022/09/12 05:39:04;;;;;;;38.08;24.10;;;;;;;17.84;59.43;101443.56;5067011;28;20028;-66
2022/09/12 05:41:32;;;;;;;44.40;24.83;;;;;;;17.86;59.60;101454.28;5071537;28;20036;-67
2022/09/12 05:44:05;;;;;;;37.58;24.98;;;;;;;17.88;60.12;101447.72;5071388;28;20048;-66
2022/09/12 05:46:40;;;;;;;37.70;24.45;;;;;;;17.91;59.91;101446.56;5071475;28;20094;-67
2022/09/12 05:49:09;;;;;;;37.88;25.00;;;;;;;17.92;59.72;101454.59;5069769;28;20036;-66
2022/09/12 05:51:41;;;;;;;38.97;24.15;;;;;;;17.96;59.49;101452.44;5070972;28;20053;-67
2022/09/12 05:54:13;;;;;;;37.40;24.20;;;;;;;17.97;59.85;101452.31;5071454;28;20043;-66
2022/09/12 05:56:42;;;;;;;38.45;24.05;;;;;;;17.99;60.04;101450.31;5071443;28;20101;-65
2022/09/12 05:59:14;;;;;;;37.97;24.65;;;;;;;18.01;60.09;101452.88;5053504;28;20066;-66
2022/09/12 06:01:41;;;;;;;38.85;25.35;;;;;;;18.03;59.84;101451.72;5061055;28;20091;-66
2022/09/12 06:04:11;;;;;;;38.40;24.08;;;;;;;18.05;59.79;101460.59;5051288;28;20048;-67
2022/09/12 06:06:45;;;;;;;39.05;24.90;;;;;;;18.06;59.86;101456.88;5051267;28;20037;-66
2022/09/12 06:09:16;;;;;;;41.10;25.90;;;;;;;18.09;59.77;101466.63;5051006;28;20549;-66
2022/09/12 06:11:44;;;;;;;41.83;27.52;;;;;;;18.08;59.83;101457.59;5051044;28;20045;-67
2022/09/12 06:14:13;;;;;;;41.85;25.20;;;;;;;18.10;59.95;101461.03;5053364;28;20404;-66
2022/09/12 06:16:39;;;;;;;44.38;26.95;;;;;;;18.10;60.04;101465.59;5056263;28;20041;-67
2022/09/12 06:19:12;;;;;;;44.85;26.88;;;;;;;18.12;60.14;101466.31;5087094;28;20064;-68
2022/09/12 06:21:39;;;;;;;44.55;27.52;;;;;;;18.14;60.31;101461.59;5074862;28;20495;-68
2022/09/12 06:24:06;;;;;;;42.55;26.48;;;;;;;18.16;60.14;101465.03;5075415;28;20049;-68
2022/09/12 06:26:33;;;;;;;43.92;26.42;;;;;;;18.18;60.50;101460.31;5075113;28;20048;-67
2022/09/12 06:29:00;;;;;;;41.28;25.30;;;;;;;18.20;60.21;101469.19;5075129;28;20066;-69
2022/09/12 06:31:30;;;;;;;38.42;24.77;;;;;;;18.21;60.37;101462.75;5074982;28;20102;-68
2022/09/12 06:34:04;;;;;;;44.80;27.80;;;;;;;18.25;60.48;101461.47;5077795;28;20040;-68
2022/09/12 06:36:35;;;;;;;40.22;25.88;;;;;;;18.30;60.13;101461.88;5074851;28;20110;-68
2022/09/12 06:39:06;;;;;;;43.97;27.40;;;;;;;18.34;60.12;101463.31;5084352;28;20036;-68
2022/09/12 06:41:33;;;;;;;40.83;25.83;;;;;;;18.39;60.42;101462.88;5095185;28;20074;-67
2022/09/12 06:44:05;;;;;;;46.28;26.88;;;;;;;18.41;60.21;101459.00;5094957;28;20107;-68
2022/09/12 06:46:32;;;;;;;40.78;26.13;;;;;;;18.45;60.22;101459.56;5084998;28;20098;-67
2022/09/12 06:48:59;;;;;;;40.42;26.77;;;;;;;18.48;60.21;101458.44;5088392;28;20125;-68
2022/09/12 06:51:28;;;;;;;39.47;26.45;;;;;;;18.50;60.06;101449.13;5074765;28;20135;-67
2022/09/12 06:53:57;;;;;;;39.63;26.33;;;;;;;18.51;60.05;101452.69;5084930;28;20095;-67
2022/09/12 06:56:26;;;;;;;39.17;27.08;;;;;;;18.51;59.96;101463.59;5094916;28;20036;-68
2022/09/12 06:58:55;;;;;;;41.45;28.30;;;;;;;18.50;60.33;101459.16;5094839;28;20040;-68
2022/09/12 07:01:24;;;;;;;44.05;29.10;;;;;;;18.50;60.33;101461.88;5094426;28;20049;-68
2022/09/12 07:03:57;;;;;;;45.15;28.65;;;;;;;18.48;60.32;101466.59;5093214;28;20028;-67
2022/09/12 07:06:30;;;;;;;45.60;29.75;;;;;;;18.45;60.36;101459.56;5076165;28;20524;-68
2022/09/12 07:08:58;;;;;;;47.42;30.48;;;;;;;18.44;60.17;101452.44;5094575;28;20248;-68
2022/09/12 07:11:28;;;;;;;46.92;31.27;;;;;;;18.44;60.64;101444.25;5076289;28;20043;-68
2022/09/12 07:13:55;;;;;;;47.55;32.13;;;;;;;18.47;61.02;101449.41;5094218;28;20089;-68
2022/09/12 07:16:22;;;;;;;49.90;31.48;;;;;;;18.57;60.92;101452.97;5094932;28;20032;-67
2022/09/12 07:18:51;;;;;;;42.95;31.20;;;;;;;18.69;61.03;101449.16;5094360;28;20059;-68
2022/09/12 07:21:19;;;;;;;42.42;30.00;;;;;;;18.86;61.13;101452.09;5075900;28;20040;-67
2022/09/12 07:23:50;;;;;;;41.03;29.58;;;;;;;18.99;61.19;101452.63;5093958;28;20044;-66
2022/09/12 07:26:18;;;;;;;40.25;27.88;;;;;;;19.16;61.17;101451.84;5094354;28;20036;-66
2022/09/12 07:28:44;;;;;;;44.63;30.20;;;;;;;19.35;61.15;101454.50;5094751;28;20085;-66
2022/09/12 07:31:14;;;;;;;42.15;27.35;;;;;;;19.55;61.04;101447.13;5085733;28;20041;-66
2022/09/12 07:33:46;;;;;;;38.53;27.27;;;;;;;19.73;60.97;101444.44;5055692;28;20051;-66
2022/09/12 07:36:22;;;;;;;38.95;26.05;;;;;;;19.97;61.21;101435.63;5074317;28;20049;-66
2022/09/12 07:38:54;;;;;;;40.03;26.50;;;;;;;20.25;61.26;101436.44;5074051;28;20040;-66
2022/09/12 07:41:26;;;;;;;32.22;25.20;;;;;;;20.49;60.85;101439.38;5074173;28;20052;-66
2022/09/12 07:43:57;;;;;;;34.25;24.52;;;;;;;20.72;60.45;101438.88;5073868;28;20070;-66
2022/09/12 07:46:26;;;;;;;33.17;24.40;;;;;;;20.93;60.40;101442.09;5076730;28;20097;-65
2022/09/12 07:48:55;;;;;;;36.40;25.13;;;;;;;21.16;60.30;101437.78;5073949;28;20044;-66
2022/09/12 07:51:22;;;;;;;31.60;23.10;;;;;;;21.36;59.94;101448.47;5074256;28;20040;-66
2022/09/12 07:53:55;;;;;;;34.03;24.45;;;;;;;21.48;59.29;101450.75;5074175;28;20110;-66
2022/09/12 07:56:21;;;;;;;34.38;23.27;;;;;;;21.67;59.29;101446.06;5079623;28;20101;-65
2022/09/12 07:58:55;;;;;;;29.38;22.35;;;;;;;21.86;59.34;101446.63;5094443;28;20043;-65
2022/09/12 08:01:22;;;;;;;30.25;22.08;;;;;;;22.01;59.04;101444.06;5095028;28;20032;-65
2022/09/12 08:03:58;;;;;;;30.25;20.85;;;;;;;22.09;58.54;101448.72;5093924;28;20109;-65
2022/09/12 08:06:26;;;;;;;26.63;20.55;;;;;;;22.17;58.29;101446.00;5087191;28;20508;-65
2022/09/12 08:08:55;;;;;;;24.70;19.23;;;;;;;22.27;58.43;101448.56;5073008;28;20045;-65
2022/09/12 08:11:22;;;;;;;24.58;19.27;;;;;;;22.36;58.05;101444.84;5082473;28;20040;-65
2022/09/12 08:13:53;;;;;;;25.05;18.73;;;;;;;22.51;58.10;101446.72;5092929;28;20093;-65
2022/09/12 08:16:24;;;;;;;24.65;18.10;;;;;;;22.67;57.74;101443.09;5093212;28;20288;-65
2022/09/12 08:18:51;;;;;;;24.80;18.52;;;;;;;22.81;57.61;101453.38;5093181;28;20093;-65
2022/09/12 08:21:20;;;;;;;24.05;18.88;;;;;;;22.91;57.31;101444.97;5092929;28;20058;-65
2022/09/12 08:23:54;;;;;;;24.55;18.88;;;;;;;23.04;57.26;101453.53;5093265;28;20130;-65
2022/09/12 08:26:21;;;;;;;22.50;17.45;;;;;;;23.20;57.07;101451.75;5090598;28;20048;-65
2022/09/12 08:28:48;;;;;;;24.33;17.95;;;;;;;23.37;56.89;101457.00;5093091;28;20042;-65
2022/09/12 08:31:17;;;;;;;21.83;16.73;;;;;;;23.55;56.58;101453.19;5092699;28;20048;-66
2022/09/12 08:33:46;;;;;;;22.60;17.48;;;;;;;23.67;56.51;101458.09;5088727;28;20067;-65
2022/09/12 08:36:20;;;;;;;25.90;18.33;;;;;;;23.77;56.25;101460.59;5071683;28;20044;-65
2022/09/12 08:38:48;;;;;;;23.08;17.63;;;;;;;23.88;55.75;101452.00;5072589;28;20101;-66
2022/09/12 08:41:18;;;;;;;23.20;18.30;;;;;;;23.97;55.46;101459.16;5054363;28;20102;-66
2022/09/12 08:44:00;;;;;;;22.90;18.10;;;;;;;23.97;55.40;101455.53;5075839;28;20456;-66
2022/09/12 08:47:03;;;;;;;23.05;17.92;;;;;;;24.02;55.25;101456.72;5054542;28;20049;-65
2022/09/12 08:49:41;;;;;;;26.08;19.13;;;;;;;24.11;55.29;101453.91;5072105;28;20097;-66
2022/09/12 08:52:33;;;;;;;26.45;18.98;;;;;;;24.17;54.80;101462.25;5072038;28;20563;-65
2022/09/12 08:55:01;;;;;;;25.73;19.20;;;;;;;24.28;55.10;101452.78;5057333;28;20110;-65
2022/09/12 08:57:28;;;;;;;23.90;18.70;;;;;;;24.36;54.74;101456.31;5075986;28;20036;-66
2022/09/12 08:59:55;;;;;;;23.45;18.42;;;;;;;24.44;54.64;101452.63;5073916;28;20379;-66
2022/09/12 09:02:39;;;;;;;20.17;17.23;;;;;;;24.50;54.19;101453.78;5091932;28;20044;-65
2022/09/12 09:05:18;;;;;;;24.77;18.33;;;;;;;24.55;54.08;101449.47;5091916;28;20032;-67
2022/09/12 09:08:18;;;;;;;25.13;18.23;;;;;;;24.62;54.17;101450.44;5091665;28;20052;-68
2022/09/12 09:11:25;;;;;;;21.05;17.13;;;;;;;24.69;53.83;101440.41;5091919;28;20040;-67
2022/09/12 09:17:13;;;;;;;23.65;17.65;;;;;;;24.93;53.71;101436.56;5082648;28;20048;-67
2022/09/12 09:19:46;;;;;;;20.65;16.73;;;;;;;25.08;53.71;101439.34;5071432;28;20579;-68
2022/09/12 09:22:25;;;;;;;17.58;15.00;;;;;;;25.23;53.25;101447.59;5071378;28;20046;-68
2022/09/12 09:24:59;;;;;;;;;;;;;;;25.37;53.30;101438.50;5071533;28;20049;-68
2022/09/12 09:27:32;;;;;;;20.20;17.50;;;;;;;25.49;52.92;101436.97;5071681;28;19920;-67
2022/09/12 09:30:13;;;;;;;21.27;17.15;;;;;;;25.59;52.85;101432.00;5071038;28;20052;-67
2022/09/12 09:32:40;;;;;;;19.77;16.13;;;;;;;25.73;52.81;101430.28;5072141;28;20044;-67
2022/09/12 09:35:43;;;;;;;20.80;16.10;;;;;;;25.91;52.55;101427.09;5071053;28;20053;-68
2022/09/12 09:38:37;;;;;;;15.32;12.88;;;;;;;26.10;52.56;101429.25;5019153;28;20106;-68
2022/09/12 09:41:18;;;;;;;17.17;14.60;;;;;;;26.27;51.93;101424.31;5071102;28;20043;-68
2022/09/12 09:43:45;;;;;;;17.70;14.27;;;;;;;26.37;51.83;101430.38;5070606;28;20418;-68
2022/09/12 09:46:12;;;;;;;15.38;12.07;;;;;;;26.42;51.40;101419.59;5070980;28;20441;-67
2022/09/12 09:48:43;;;;;;;18.25;12.75;;;;;;;26.53;51.38;101415.47;5072132;28;20439;-68
2022/09/12 09:51:10;;;;;;;14.10;11.65;;;;;;;26.67;51.03;101416.41;5053310;28;20041;-66
2022/09/12 09:53:54;;;;;;;16.55;12.60;;;;;;;26.78;50.64;101415.88;5070986;28;20036;-67
2022/09/12 09:56:39;;;;;;;14.60;12.23;;;;;;;26.90;50.20;101411.50;5053013;28;20500;-66
2022/09/12 09:59:19;;;;;;;12.57;11.27;;;;;;;27.03;49.86;101408.88;5071058;28;20098;-66
2022/09/12 10:02:02;;;;;;;13.35;11.43;;;;;;;27.10;49.82;101395.97;5070588;28;20491;-66
2022/09/12 10:04:33;;;;;;;12.52;10.68;;;;;;;27.18;49.55;101392.19;5071706;28;20407;-66
2022/09/12 10:07:18;;;;;;;13.05;9.70;;;;;;;27.20;48.96;101392.84;5070870;28;20052;-66
2022/09/12 10:10:04;;;;;;;16.13;9.75;;;;;;;27.26;48.64;101392.00;5070815;28;20041;-67
2022/09/12 10:12:31;;;;;;;27.33;11.27;;;;;;;27.32;48.76;101388.44;5070615;28;20518;-67
2022/09/12 10:15:01;;;;;;;16.75;9.80;;;;;;;27.39;48.18;101385.69;5052612;28;20055;-67
2022/09/12 10:17:39;;;;;;;11.60;10.40;;;;;;;27.51;48.38;101387.69;5049428;28;20057;-67
2022/09/12 10:20:34;;;;;;;15.43;11.00;;;;;;;27.64;47.79;101380.53;5051969;28;20090;-68
2022/09/12 10:23:39;;;;;;;12.13;10.32;;;;;;;27.74;47.53;101375.47;5050539;28;20441;-67
2022/09/12 10:26:12;;;;;;;12.95;11.10;;;;;;;27.83;47.21;101382.50;5050264;28;20033;-67
2022/09/12 10:28:43;;;;;;;13.30;10.75;;;;;;;27.87;47.09;101369.13;5050880;28;20406;-67
2022/09/12 10:31:16;;;;;;;15.15;10.30;;;;;;;27.93;46.93;101363.63;5050749;28;20048;-67
2022/09/12 10:33:52;;;;;;;12.75;10.43;;;;;;;27.99;46.65;101371.06;5050430;28;20505;-67
2022/09/12 10:36:20;;;;;;;11.27;9.75;;;;;;;28.06;46.80;101368.28;5051506;28;20445;-67
2022/09/12 10:38:54;;;;;;;13.77;10.82;;;;;;;28.17;46.45;101362.13;5050612;28;20095;-67
2022/09/12 10:41:21;;;;;;;18.03;10.73;;;;;;;28.29;46.40;101354.97;5050506;28;20037;-67
2022/09/12 10:43:51;;;;;;;11.93;9.30;;;;;;;28.41;45.92;101353.28;5050469;28;20049;-67
2022/09/12 10:46:18;;;;;;;10.25;8.70;;;;;;;28.50;45.72;101351.13;5068389;28;20057;-67
2022/09/12 10:48:49;;;;;;;12.38;9.63;;;;;;;28.56;45.25;101338.38;5070835;28;20033;-66
2022/09/12 10:51:24;;;;;;;10.80;8.77;;;;;;;28.60;45.13;101348.78;5061830;28;20048;-67
2022/09/12 10:53:59;;;;;;;9.77;8.70;;;;;;;28.72;44.69;101343.44;5053761;28;20503;-67
2022/09/12 10:56:32;;;;;;;10.52;8.55;;;;;;;28.79;44.50;101338.75;5050048;28;20503;-67
2022/09/12 10:59:23;;;;;;;10.02;7.90;;;;;;;28.89;44.37;101333.63;5050923;28;20044;-67
2022/09/12 11:02:01;;;;;;;9.70;7.78;;;;;;;29.00;44.29;101321.94;5057363;28;20480;-66
2022/09/12 11:04:54;;;;;;;7.75;6.95;;;;;;;28.99;43.50;101322.16;5054326;28;20075;-67
2022/09/12 11:07:27;;;;;;;13.73;6.85;;;;;;;28.99;43.75;101327.69;5053872;28;20111;-67
2022/09/12 11:10:02;;;;;;;8.00;7.22;;;;;;;29.05;43.19;101324.03;5053850;28;20033;-67
2022/09/12 11:12:42;;;;;;;7.47;6.25;;;;;;;29.16;43.27;101323.34;5053736;28;20086;-66
2022/09/12 11:15:35;;;;;;;8.75;7.30;;;;;;;29.22;42.82;101308.63;5054781;28;20055;-67
2022/09/12 11:18:37;;;;;;;7.53;6.82;;;;;;;29.31;43.09;101303.69;5062241;28;20606;-67
2022/09/12 11:21:09;;;;;;;7.40;6.70;;;;;;;29.41;42.91;101295.75;5073771;28;20548;-68
2022/09/12 11:24:07;;;;;;;8.10;5.60;;;;;;;29.49;42.30;101291.91;5078373;28;20032;-68
2022/09/12 11:26:49;;;;;;;7.70;4.88;;;;;;;29.59;41.82;101295.88;5073711;28;20037;-68
2022/09/12 11:29:18;;;;;;;7.78;5.97;;;;;;;29.75;42.07;101286.22;5073749;28;20049;-68
2022/09/12 11:32:04;;;;;;;6.88;5.00;;;;;;;29.84;41.79;101292.31;5074386;28;20098;-68
2022/09/12 11:34:49;;;;;;;;;;;;;;;29.99;42.23;101292.84;5056190;28;20071;-66
2022/09/12 11:37:22;;;;;;;5.90;4.70;;;;;;;30.17;41.79;101287.38;5073484;28;19920;-68
2022/09/12 11:39:51;;;;;;;6.60;5.03;;;;;;;30.32;41.73;101293.41;5073063;28;20049;-67
2022/09/12 11:42:29;;;;;;;7.03;5.55;;;;;;;30.48;41.44;101288.38;5073265;28;20049;-68
2022/09/12 11:45:17;;;;;;;7.53;5.32;;;;;;;30.60;40.63;101297.66;5055157;28;20048;-68